Time;durP1;ratioP1;P1;durP2;ratioP2;P2;SDS_P1;SDS_P2;PMS_P1;PMS_P2;Temp;Humidity;BMP_temperature;BMP_pressure;BME280_temperature;BME280_humidity;BME280_pressure;Samples;Min_cycle;Max_cycle;Signal;HPM_P1;HPM_P2
2022/08/11 00:00:10;;;;;;;0.50;0.50;;;17.40;54.70;;;17.89;40.72;95659.34;5016122;28;20187;-79
2022/08/11 00:02:50;;;;;;;0.50;0.50;;;17.40;54.70;;;17.90;40.85;95664.44;4999735;28;20224;-79
2022/08/11 00:05:20;;;;;;;0.50;0.50;;;17.40;54.80;;;17.90;40.74;95660.97;5047514;28;20239;-78
2022/08/11 00:07:53;;;;;;;0.52;0.52;;;17.40;54.80;;;17.88;40.82;95653.25;5064803;28;20224;-78
2022/08/11 00:10:25;;;;;;;0.50;0.50;;;17.40;56.60;;;17.88;41.16;95669.16;5032161;28;20620;-79
2022/08/11 00:13:00;;;;;;;0.50;0.50;;;17.30;55.10;;;17.86;40.94;95665.91;5047612;28;20205;-79
2022/08/11 00:15:42;;;;;;;0.50;0.50;;;17.40;55.10;;;17.79;41.19;95653.75;5047697;28;20294;-78
2022/08/11 00:18:11;;;;;;;0.50;0.50;;;17.30;55.50;;;17.81;40.72;95664.94;5063461;28;20215;-78
2022/08/11 00:20:43;;;;;;;0.60;0.60;;;17.30;55.20;;;17.79;41.39;95662.50;5047668;28;20188;-78
2022/08/11 00:23:13;;;;;;;0.50;0.50;;;17.30;55.40;;;17.75;41.71;95656.03;5015027;28;20287;-78
2022/08/11 00:25:49;;;;;;;0.50;0.50;;;17.30;55.30;;;17.69;41.52;95655.03;5031173;28;20229;-77
2022/08/11 00:28:31;;;;;;;0.40;0.40;;;17.20;55.50;;;17.68;41.19;95656.06;5028372;28;20295;-78
2022/08/11 00:31:04;;;;;;;0.50;0.50;;;17.20;55.70;;;17.64;41.74;95648.75;5012047;28;20672;-78
2022/08/11 00:33:43;;;;;;;0.43;0.43;;;17.20;55.90;;;17.64;41.57;95652.25;5049577;28;20249;-78
2022/08/11 00:36:16;;;;;;;0.50;0.50;;;17.20;56.00;;;17.62;41.86;95650.84;5049792;28;20203;-77
2022/08/11 00:38:52;;;;;;;0.50;0.50;;;17.10;55.90;;;17.59;41.79;95646.78;5027372;28;20197;-78
2022/08/11 00:41:35;;;;;;;0.50;0.50;;;17.10;55.80;;;17.55;41.77;95651.72;5037578;28;20216;-78
2022/08/11 00:44:44;;;;;;;0.50;0.50;;;17.10;56.40;;;17.54;41.84;95646.59;5015186;28;20222;-78
2022/08/11 00:47:40;;;;;;;0.60;0.60;;;17.10;56.20;;;17.51;41.57;95647.06;5014961;28;20248;-78
2022/08/11 00:50:40;;;;;;;0.47;0.47;;;17.10;56.10;;;17.50;41.38;95648.06;5030739;28;20203;-78
2022/08/11 00:53:52;;;;;;;0.50;0.50;;;17.00;55.80;;;17.45;41.79;95643.41;5013943;28;20219;-78
2022/08/11 00:57:05;;;;;;;0.60;0.60;;;17.00;56.30;;;17.39;42.10;95650.41;5028883;28;20235;-78
2022/08/11 01:00:14;;;;;;;0.50;0.50;;;17.00;56.30;;;17.33;41.97;95645.16;5004138;28;20234;-78
2022/08/11 01:02:59;;;;;;;0.50;0.50;;;16.90;56.50;;;17.28;42.21;95641.31;5014995;28;20224;-78
2022/08/11 01:05:50;;;;;;;0.52;0.52;;;16.90;56.50;;;17.25;42.38;95638.28;5011686;28;21045;-78
2022/08/11 01:08:48;;;;;;;0.55;0.55;;;16.80;56.70;;;17.21;42.34;95634.44;5064333;28;20263;-78
2022/08/11 01:12:04;;;;;;;0.50;0.50;;;16.80;57.00;;;17.19;42.51;95639.16;5047630;28;20224;-77
2022/08/11 01:15:23;;;;;;;0.50;0.50;;;16.80;56.50;;;17.15;42.37;95640.59;5047337;28;20208;-79
2022/08/11 01:18:56;;;;;;;0.60;0.60;;;16.80;56.60;;;17.11;42.33;95640.22;5048975;28;20215;-78
2022/08/11 01:22:10;;;;;;;0.50;0.50;;;16.70;56.30;;;17.04;42.39;95631.50;5028813;28;20258;-79
2022/08/11 01:25:33;;;;;;;0.50;0.50;;;16.70;58.30;;;17.02;42.66;95636.22;5048475;28;20230;-78
2022/08/11 01:28:59;;;;;;;0.55;0.55;;;16.60;56.90;;;16.97;42.55;95628.91;5044182;28;20214;-78
2022/08/11 01:32:00;;;;;;;0.50;0.50;;;16.60;57.00;;;16.94;42.55;95632.78;5039632;28;20228;-78
2022/08/11 01:35:23;;;;;;;0.50;0.50;;;16.50;57.50;;;16.88;42.84;95636.28;5010676;28;20204;-79
2022/08/11 01:38:28;;;;;;;0.60;0.60;;;16.50;57.00;;;16.85;42.88;95634.03;5011084;28;20275;-79
2022/08/11 01:41:11;;;;;;;0.70;0.70;;;16.50;57.80;;;16.83;42.87;95633.41;4997648;28;20644;-78
2022/08/11 01:47:51;;;;;;;0.60;0.60;;;16.40;58.00;;;16.73;43.13;95622.50;5047267;28;20226;-79
2022/08/11 01:50:38;;;;;;;0.50;0.50;;;16.40;57.80;;;16.73;43.13;95625.13;5060321;28;20199;-78
2022/08/11 01:53:37;;;;;;;0.55;0.55;;;16.30;57.90;;;16.70;43.45;95618.44;5049162;28;20218;-78
2022/08/11 01:56:47;;;;;;;0.50;0.50;;;16.30;58.20;;;16.66;43.20;95617.22;5014305;28;20228;-78
2022/08/11 01:59:25;;;;;;;0.60;0.60;;;16.20;59.30;;;16.64;43.30;95612.13;5063485;28;20282;-77
2022/08/11 02:02:11;;;;;;;0.50;0.50;;;16.20;58.50;;;16.62;43.67;95616.84;5037781;28;20252;-78
2022/08/11 02:05:19;;;;;;;0.50;0.50;;;16.20;58.30;;;16.61;43.54;95615.22;5048154;28;20311;-78
2022/08/11 02:08:05;;;;;;;0.55;0.55;;;16.20;58.10;;;16.62;43.62;95618.69;5030762;28;20286;-78
2022/08/11 02:14:12;;;;;;;0.50;0.50;;;16.10;59.40;;;16.54;43.82;95614.44;5046326;28;20630;-78
2022/08/11 02:17:34;;;;;;;0.50;0.50;;;16.10;59.30;;;16.53;44.02;95609.34;5066779;28;20241;-78
2022/08/11 02:23:50;;;;;;;0.50;0.50;;;16.10;59.20;;;16.47;44.15;95611.03;5050423;28;20581;-79
2022/08/11 02:26:42;;;;;;;0.52;0.52;;;16.10;59.80;;;16.42;44.89;95602.91;5048406;28;20270;-78
2022/08/11 02:29:16;;;;;;;0.40;0.40;;;16.00;58.50;;;16.42;44.09;95605.56;5047256;28;20207;-78
2022/08/11 02:35:19;;;;;;;0.60;0.60;;;16.00;59.80;;;16.35;44.74;95605.56;5047157;28;20200;-78
2022/08/11 02:38:07;;;;;;;0.50;0.50;;;16.00;59.40;;;16.38;44.98;95604.34;5014283;28;20220;-78
2022/08/11 02:40:56;;;;;;;0.60;0.60;;;15.90;60.30;;;16.35;44.35;95592.34;5032717;28;20558;-78
2022/08/11 02:43:27;;;;;;;0.70;0.70;;;15.90;59.90;;;16.40;44.53;95594.34;5032117;28;20223;-78
2022/08/11 02:46:19;;;;;;;0.70;0.70;;;15.90;60.20;;;16.39;44.60;95603.31;5032953;28;20701;-78
2022/08/11 02:52:15;;;;;;;0.50;0.50;;;15.90;60.30;;;16.37;44.99;95600.88;5049965;28;20681;-79
2022/08/11 02:55:11;;;;;;;0.50;0.50;;;15.90;60.20;;;16.33;45.25;95600.50;5054737;28;20187;-78
2022/08/11 02:58:08;;;;;;;0.55;0.55;;;15.90;59.90;;;16.32;44.99;95598.88;5037373;28;20200;-78
2022/08/11 03:00:50;;;;;;;0.60;0.60;;;15.90;60.20;;;16.29;45.47;95596.63;5053491;28;20707;-78
2022/08/11 03:03:22;;;;;;;0.50;0.50;;;15.90;60.30;;;16.30;45.10;95595.59;5020436;28;20183;-79
2022/08/11 03:06:51;;;;;;;0.60;0.60;;;15.90;59.80;;;16.26;45.26;95589.13;5036648;28;20293;-79
2022/08/11 03:10:08;;;;;;;0.50;0.50;;;15.90;60.20;;;16.23;45.06;95596.66;5029421;28;20242;-78
2022/08/11 03:16:44;;;;;;;0.50;0.50;;;15.80;60.10;;;16.23;45.42;95600.13;5018646;28;20250;-78
2022/08/11 03:18:50;;;;;;;0.52;0.52;;;15.80;60.10;;;16.21;45.87;95594.25;5060723;28;20553;-78
2022/08/11 03:21:29;;;;;;;0.57;0.57;;;15.80;60.20;;;16.24;45.54;95598.31;5063751;28;20239;-78
2022/08/11 03:24:42;;;;;;;0.50;0.50;;;15.80;60.10;;;16.24;45.34;95593.00;5032920;28;20188;-77
2022/08/11 03:27:35;;;;;;;0.50;0.50;;;15.80;60.20;;;16.25;46.04;95597.28;5016563;28;20281;-78
2022/08/11 03:30:22;;;;;;;0.50;0.50;;;15.80;60.20;;;16.23;45.67;95597.47;5043943;28;20213;-78
2022/08/11 03:36:45;;;;;;;0.52;0.52;;;15.80;60.10;;;16.19;45.86;95604.22;5039223;28;20220;-78
2022/08/11 03:39:53;;;;;;;0.60;0.60;;;15.80;60.20;;;16.17;45.75;95606.25;5032057;28;20196;-78
2022/08/11 03:42:36;;;;;;;0.50;0.50;;;15.80;60.20;;;16.15;45.76;95603.03;5023903;28;20567;-77
2022/08/11 03:45:27;;;;;;;0.50;0.50;;;15.80;60.10;;;16.15;46.06;95597.72;5012856;28;20230;-78
2022/08/11 03:48:42;;;;;;;0.60;0.60;;;15.80;60.10;;;16.12;45.81;95598.94;5012844;28;20201;-78
2022/08/11 03:51:37;;;;;;;0.50;0.50;;;15.80;60.20;;;16.11;45.63;95612.38;5037592;28;20220;-77
2022/08/11 03:54:55;;;;;;;0.50;0.50;;;15.70;60.10;;;16.07;45.76;95600.59;5053022;28;20210;-77
2022/08/11 03:58:10;;;;;;;0.50;0.50;;;15.70;60.70;;;16.04;45.85;95604.47;5019797;28;20319;-78
2022/08/11 04:01:20;;;;;;;0.50;0.50;;;15.70;60.40;;;16.02;45.93;95598.56;5047447;28;20197;-78
2022/08/11 04:04:17;;;;;;;0.50;0.50;;;15.70;60.40;;;16.03;46.03;95602.03;5057891;28;20287;-78
2022/08/11 04:07:12;;;;;;;0.50;0.50;;;15.70;60.70;;;16.02;46.02;95600.44;5036233;28;20425;-78
2022/08/11 04:10:25;;;;;;;0.50;0.50;;;15.60;60.70;;;16.04;46.11;95603.66;5010629;28;20197;-78
2022/08/11 04:13:18;;;;;;;0.50;0.50;;;15.60;60.70;;;16.02;46.00;95603.06;5024487;28;20200;-78
2022/08/11 04:16:29;;;;;;;0.50;0.50;;;15.60;60.80;;;16.01;45.99;95602.25;5043796;28;20211;-78
2022/08/11 04:19:35;;;;;;;0.50;0.50;;;15.60;60.90;;;16.03;46.14;95599.38;5046433;28;20204;-78
2022/08/11 04:22:36;;;;;;;0.50;0.50;;;15.70;61.00;;;16.04;46.39;95593.91;5033272;28;20231;-78
2022/08/11 04:25:17;;;;;;;0.60;0.60;;;15.70;61.00;;;16.08;46.33;95599.59;5015797;28;20318;-78
2022/08/11 04:28:01;;;;;;;0.50;0.50;;;15.70;61.30;;;16.10;46.71;95598.34;5014556;28;20310;-78
2022/08/11 04:31:02;;;;;;;0.50;0.50;;;15.70;61.30;;;16.12;46.59;95598.94;5061502;28;20242;-78
2022/08/11 04:33:56;;;;;;;0.50;0.50;;;15.70;61.50;;;16.19;46.58;95598.13;5045399;28;20195;-79
2022/08/11 04:40:39;;;;;;;0.40;0.40;;;15.80;61.80;;;16.27;46.74;95598.69;5030409;28;20184;-78
2022/08/11 04:43:45;;;;;;;0.50;0.50;;;15.90;61.60;;;16.33;46.87;95604.97;5027824;28;20728;-79
2022/08/11 04:47:06;;;;;;;0.50;0.50;;;15.90;61.70;;;16.40;46.97;95605.75;5042773;28;20224;-78
2022/08/11 05:02:40;;;;;;;0.60;0.60;;;16.30;62.00;;;16.83;47.17;95604.28;5015069;28;20221;-79
2022/08/11 05:05:45;;;;;;;0.57;0.57;;;16.40;61.90;;;16.94;47.09;95608.13;5031202;28;20630;-79
2022/08/11 05:09:13;;;;;;;0.40;0.40;;;16.50;62.30;;;17.04;47.27;95604.97;5036640;28;20209;-78
2022/08/11 05:12:05;;;;;;;0.50;0.50;;;16.60;62.20;;;17.15;47.52;95606.13;5033978;28;20252;-79
2022/08/11 05:36:15;;;;;;;0.50;0.50;;;17.60;61.60;;;18.28;46.91;95603.44;5029161;28;20224;-79
2022/08/11 05:57:27;;;;;;;0.45;0.45;;;18.70;60.90;;;19.26;45.57;95600.63;5018548;28;20224;-79
2022/08/11 06:00:15;;;;;;;0.40;0.40;;;18.80;60.80;;;19.39;45.63;95604.94;5014873;28;20207;-79
2022/08/11 06:02:48;;;;;;;0.50;0.50;;;19.00;60.70;;;19.50;45.69;95604.13;5017651;28;20562;-79
2022/08/11 06:05:16;;;;;;;0.40;0.40;;;19.00;60.40;;;19.60;45.53;95603.53;5012464;28;20308;-78
2022/08/11 06:07:47;;;;;;;0.60;0.60;;;19.10;60.30;;;19.71;45.12;95609.91;5031874;28;22179;-78
2022/08/11 06:10:41;;;;;;;0.40;0.40;;;19.20;60.20;;;19.80;45.22;95608.53;5031676;28;20332;-78
2022/08/11 06:13:14;;;;;;;0.40;0.40;;;19.40;60.20;;;19.90;45.31;95605.31;5041894;28;20200;-78
2022/08/11 06:15:47;;;;;;;0.40;0.40;;;19.50;60.20;;;19.99;45.38;95607.38;5012361;28;20225;-79
2022/08/11 06:18:15;;;;;;;0.40;0.40;;;19.60;60.40;;;20.06;45.35;95601.91;5049932;28;20294;-78
2022/08/11 06:20:52;;;;;;;0.30;0.30;;;19.70;60.30;;;20.18;44.83;95607.22;5000297;28;20188;-80
2022/08/11 06:23:22;;;;;;;0.47;0.47;;;19.80;60.10;;;20.27;44.58;95605.78;5033984;28;20234;-79
2022/08/11 06:25:54;;;;;;;0.40;0.40;;;19.90;60.20;;;;;;5039765;28;20273;-80
2022/08/11 06:28:36;;;;;;;0.40;0.40;;;20.00;59.80;;;20.44;44.54;95603.19;5035879;28;20200;-80
2022/08/11 06:31:24;;;;;;;0.40;0.40;;;20.10;59.70;;;20.51;44.74;95608.41;5051014;28;20263;-78
2022/08/11 06:34:22;;;;;;;0.40;0.40;;;20.20;59.20;;;20.57;44.48;95612.78;5040546;28;20224;-78
2022/08/11 06:37:13;;;;;;;0.40;0.40;;;20.30;59.00;;;20.64;44.16;95609.94;5063019;28;20216;-80
2022/08/11 06:40:04;;;;;;;0.40;0.40;;;20.30;59.10;;;20.72;44.21;95609.59;5049028;28;20204;-78
2022/08/11 06:42:56;;;;;;;0.40;0.40;;;20.40;58.80;;;20.78;44.22;95605.97;5031642;28;20223;-79
2022/08/11 06:45:30;;;;;;;0.40;0.40;;;20.50;58.90;;;20.85;43.51;95600.50;5015059;28;20733;-80
2022/08/11 06:48:01;;;;;;;0.50;0.50;;;20.50;58.70;;;20.95;43.73;95603.34;5040054;28;20208;-78
2022/08/11 06:53:21;;;;;;;0.40;0.40;;;20.70;58.80;;;21.13;43.66;95606.03;5026510;28;20232;-78
2022/08/11 07:02:05;;;;;;;0.50;0.50;;;21.00;58.60;;;21.40;43.00;95599.00;5023153;28;20215;-78
2022/08/11 07:04:59;;;;;;;0.40;0.40;;;21.10;58.20;;;21.51;43.06;95605.31;4998862;28;20713;-78
2022/08/11 07:17:21;;;;;;;0.40;0.40;;;21.50;57.30;;;21.88;42.45;95594.09;5025414;28;20273;-78
2022/08/11 07:28:54;;;;;;;0.30;0.30;;;21.90;57.30;;;22.35;42.09;95584.81;5022527;28;20204;-79
2022/08/11 07:31:31;;;;;;;0.30;0.30;;;22.00;57.20;;;22.49;42.20;95581.78;5008194;28;20224;-79
2022/08/11 07:34:17;;;;;;;0.35;0.35;;;22.10;56.70;;;22.62;41.51;95583.25;5011228;28;20207;-78
2022/08/11 07:36:55;;;;;;;0.40;0.40;;;22.20;56.40;;;22.77;41.37;95590.63;5014349;28;20742;-79
2022/08/11 07:39:30;;;;;;;0.30;0.30;;;22.30;55.90;;;22.87;40.75;95585.38;5014177;28;20211;-78
2022/08/11 07:42:05;;;;;;;0.38;0.38;;;22.50;56.00;;;22.97;40.88;95587.34;5037652;28;20345;-79
2022/08/11 07:48:10;;;;;;;0.30;0.30;;;22.60;55.90;;;23.10;40.72;95589.59;5024050;28;20200;-80
2022/08/11 07:52:59;;;;;;;0.30;0.30;;;22.90;55.30;;;23.48;39.23;95579.72;5008118;28;20554;-78
2022/08/11 07:55:30;;;;;;;0.40;0.40;;;23.10;54.40;;;23.58;39.26;95575.53;5022409;28;20205;-78
2022/08/11 08:18:15;;;;;;;0.40;0.40;;;23.90;52.30;;;24.28;37.81;95564.66;5003910;28;20365;-80
2022/08/11 08:21:10;;;;;;;0.32;0.32;;;24.00;52.20;;;24.35;36.96;95559.03;5022439;28;20228;-79
2022/08/11 08:23:42;;;;;;;0.35;0.35;;;24.00;51.60;;;24.41;36.86;95560.66;5018686;28;20204;-78
2022/08/11 08:31:54;;;;;;;0.40;0.40;;;24.20;51.00;;;24.61;36.70;95563.41;5041633;28;20927;-79
2022/08/11 08:34:22;;;;;;;0.30;0.30;;;24.30;50.80;;;24.70;36.04;95562.91;5026837;28;20283;-80
2022/08/11 08:36:51;;;;;;;0.30;0.30;;;24.40;50.30;;;24.77;36.29;95566.94;5015084;28;20231;-79
2022/08/11 08:39:20;;;;;;;0.63;0.63;;;24.40;50.50;;;24.85;36.20;95565.63;5026830;28;20613;-79
2022/08/11 08:41:55;;;;;;;0.30;0.30;;;24.50;50.30;;;24.90;35.53;95560.25;5005583;28;20316;-78
2022/08/11 08:44:25;;;;;;;0.30;0.30;;;24.60;49.20;;;24.96;35.06;95557.56;5038849;28;20199;-80
2022/08/11 08:47:09;;;;;;;0.30;0.30;;;24.60;49.30;;;25.00;34.28;95567.53;5015573;28;20227;-79
2022/08/11 08:49:48;;;;;;;0.30;0.30;;;24.70;48.40;;;25.00;34.27;95548.72;5050576;28;20207;-80
2022/08/11 08:52:22;;;;;;;0.40;0.40;;;24.80;48.20;;;25.09;34.58;95554.38;5051352;28;20219;-79
2022/08/11 08:55:18;;;;;;;0.30;0.30;;;24.80;48.20;;;25.12;34.35;95550.34;5041406;28;20205;-80
2022/08/11 08:57:49;;;;;;;0.50;0.50;;;24.90;48.30;;;25.14;34.40;95537.47;5036809;28;20215;-79
2022/08/11 09:00:17;;;;;;;0.40;0.40;;;24.90;48.30;;;25.20;34.22;95550.59;5030535;28;20227;-79
2022/08/11 09:02:50;;;;;;;0.38;0.38;;;24.90;48.30;;;25.25;34.11;95547.09;5055213;28;20251;-80
2022/08/11 09:05:18;;;;;;;0.40;0.40;;;25.00;48.50;;;25.33;34.17;95548.44;5010307;28;20279;-80
2022/08/11 09:07:49;;;;;;;0.45;0.45;;;25.00;48.30;;;25.39;34.23;95539.34;5056017;28;20219;-79
2022/08/11 09:10:19;;;;;;;0.35;0.35;;;25.10;48.10;;;25.47;34.41;95538.78;5061486;28;20258;-80
2022/08/11 09:12:47;;;;;;;0.30;0.30;;;25.10;47.70;;;25.53;34.08;95539.59;5043857;28;20231;-80
2022/08/11 09:15:17;;;;;;;0.50;0.50;;;25.20;48.10;;;25.56;33.41;95536.34;5011375;28;20193;-79
2022/08/11 09:17:50;;;;;;;0.30;0.30;;;25.20;47.40;;;25.62;33.36;95542.53;4998866;28;20223;-79
2022/08/11 09:20:32;;;;;;;0.38;0.38;;;25.30;47.00;;;25.65;33.09;95539.31;5030659;28;20287;-80
2022/08/11 09:28:59;;;;;;;0.30;0.30;;;25.50;46.80;;;25.80;32.61;95533.88;5033885;28;20192;-80
2022/08/11 09:31:32;;;;;;;0.40;0.40;;;25.60;46.50;;;25.86;32.80;95532.78;5009706;28;20224;-79
2022/08/11 09:34:08;;;;;;;0.30;0.30;;;25.60;46.40;;;25.93;32.76;95537.88;5027525;28;20697;-79
2022/08/11 09:42:11;;;;;;;0.30;0.30;;;25.70;46.00;;;26.10;32.35;95521.44;5046521;28;20217;-80
2022/08/11 09:44:49;;;;;;;0.50;0.50;;;25.80;46.00;;;26.16;32.61;95524.91;5017888;28;20196;-79
2022/08/11 09:47:24;;;;;;;0.30;0.30;;;25.90;45.80;;;26.17;31.81;95526.50;5031799;28;20249;-79
2022/08/11 09:50:01;;;;;;;0.40;0.40;;;25.90;45.50;;;26.22;32.16;95523.81;5044636;28;20288;-79
2022/08/11 09:52:38;;;;;;;0.30;0.30;;;26.00;45.40;;;26.29;32.54;95520.81;5044851;28;20222;-80
2022/08/11 09:55:26;;;;;;;0.30;0.30;;;26.00;46.30;;;26.38;32.47;95516.47;5048591;28;20322;-78
2022/08/11 09:58:15;;;;;;;0.30;0.30;;;26.00;45.60;;;26.42;32.09;95500.56;5046129;28;20200;-78
2022/08/11 10:01:04;;;;;;;0.30;0.30;;;26.20;45.30;;;26.51;31.99;95510.47;5035152;28;20652;-79
2022/08/11 10:03:36;;;;;;;0.30;0.30;;;26.20;45.10;;;26.56;32.14;95506.91;5029118;28;20201;-80
2022/08/11 10:09:04;;;;;;;0.40;0.40;;;26.30;44.70;;;26.72;31.48;95499.56;5027252;28;20662;-78
2022/08/11 10:11:33;;;;;;;0.30;0.30;;;26.40;44.60;;;26.79;31.67;95500.09;5032460;28;20313;-78
2022/08/11 10:17:07;;;;;;;0.30;0.30;;;26.60;44.30;;;26.97;31.10;95503.16;5012909;28;20920;-78
2022/08/11 10:19:36;;;;;;;0.30;0.30;;;26.70;44.40;;;27.04;30.86;95498.25;5010814;28;20195;-78
2022/08/11 10:27:53;;;;;;;0.43;0.43;;;26.80;43.90;;;27.22;30.93;95501.34;5053509;28;20306;-79
2022/08/11 10:36:41;;;;;;;0.30;0.30;;;27.10;44.00;;;27.43;30.44;95483.13;5042846;28;20305;-77
2022/08/11 10:39:15;;;;;;;0.32;0.32;;;27.20;43.90;;;27.54;30.97;95481.09;5047220;28;20195;-77
2022/08/11 10:44:50;;;;;;;0.40;0.40;;;27.30;43.90;;;27.72;30.64;95475.00;5053058;28;20285;-77
2022/08/11 10:47:34;;;;;;;0.40;0.40;;;27.40;43.50;;;27.78;30.32;95473.03;5045780;28;20242;-78
2022/08/11 10:58:48;;;;;;;0.40;0.40;;;27.80;42.60;;;27.93;30.25;95463.97;5015797;28;20273;-79
2022/08/11 11:01:27;;;;;;;0.40;0.40;;;27.80;42.70;;;27.97;29.77;95467.69;5016993;28;20288;-79
2022/08/11 11:04:02;;;;;;;0.30;0.30;;;27.80;42.60;;;28.00;29.34;95475.16;5026233;28;20196;-78
2022/08/11 11:06:47;;;;;;;0.30;0.30;;;27.90;42.00;;;28.05;29.95;95466.25;5011644;28;20228;-79
2022/08/11 11:09:32;;;;;;;0.30;0.30;;;27.90;42.30;;;28.06;29.74;95457.88;5036267;28;20577;-80
2022/08/11 11:18:19;;;;;;;0.30;0.30;;;27.90;41.60;;;27.95;29.38;95467.16;5050562;28;20206;-80
2022/08/11 11:20:56;;;;;;;0.30;0.30;;;27.90;41.60;;;27.89;29.42;95457.53;5048040;28;20205;-79
2022/08/11 11:23:31;;;;;;;0.30;0.30;;;27.90;41.50;;;27.91;29.96;95455.34;5063019;28;20242;-80
2022/08/11 11:26:43;;;;;;;0.30;0.30;;;27.80;41.90;;;27.88;29.29;95445.13;5019994;28;20652;-78
2022/08/11 11:29:32;;;;;;;0.30;0.30;;;27.80;41.70;;;28.00;29.55;95455.50;5036076;28;20224;-80
2022/08/11 11:32:54;;;;;;;0.35;0.35;;;27.90;42.20;;;28.10;29.63;95453.50;5034423;28;20232;-79
2022/08/11 11:35:30;;;;;;;0.30;0.30;;;28.00;42.10;;;28.23;29.48;95451.97;5030768;28;20629;-79
2022/08/11 11:37:58;;;;;;;0.30;0.30;;;28.10;41.70;;;28.38;29.70;95447.44;5023792;28;20194;-80
2022/08/11 11:40:32;;;;;;;0.32;0.32;;;28.20;41.90;;;28.51;29.36;95438.63;5021484;28;20204;-79
2022/08/11 11:43:00;;;;;;;0.30;0.30;;;28.30;41.40;;;28.63;28.94;95457.06;5023514;28;20198;-79
2022/08/11 11:45:28;;;;;;;0.30;0.30;;;28.40;41.10;;;28.72;28.35;95451.81;5023671;28;20632;-80
2022/08/11 11:47:58;;;;;;;0.30;0.30;;;28.50;40.60;;;28.79;29.09;95446.84;5021261;28;20226;-79
2022/08/11 11:50:36;;;;;;;0.30;0.30;;;28.60;40.50;;;28.91;28.40;95441.00;5028986;28;20208;-79
2022/08/11 11:53:07;;;;;;;0.30;0.30;;;28.70;40.60;;;29.02;28.09;95450.50;5033991;28;20603;-79
2022/08/11 11:55:35;;;;;;;0.20;0.20;;;28.80;40.20;;;29.12;28.45;95441.44;5007753;28;20213;-80
2022/08/11 12:03:39;;;;;;;0.30;0.30;;;29.20;39.70;;;29.37;27.51;95453.69;5031735;28;20199;-79
2022/08/11 12:06:09;;;;;;;0.30;0.30;;;29.30;39.40;;;29.37;27.61;95451.00;5022205;28;20243;-80
2022/08/11 12:08:37;;;;;;;0.25;0.25;;;29.40;39.40;;;29.35;27.58;95436.97;5055621;28;20644;-80
2022/08/11 12:14:01;;;;;;;0.38;0.38;;;29.50;39.30;;;29.42;27.39;95436.59;5052996;28;20195;-80
2022/08/11 12:16:28;;;;;;;0.30;0.30;;;29.50;38.70;;;29.52;27.57;95436.38;5029098;28;20226;-80
2022/08/11 12:19:24;;;;;;;0.30;0.30;;;29.60;38.90;;;29.70;26.57;95431.97;5023187;28;20209;-77
2022/08/11 12:27:29;;;;;;;0.20;0.20;;;30.30;38.80;;;30.32;27.57;95416.34;5017350;28;20273;-79
2022/08/11 12:30:02;;;;;;;0.28;0.28;;;30.80;38.50;;;30.70;28.34;95428.75;5013400;28;20300;-80
2022/08/11 12:32:34;;;;;;;0.20;0.20;;;31.40;38.80;;;31.08;27.28;95417.53;5044826;28;20296;-79
2022/08/11 12:35:03;;;;;;;0.40;0.40;;;31.90;37.50;;;31.31;26.45;95415.59;5045646;28;20755;-80
2022/08/11 12:37:36;;;;;;;0.20;0.20;;;32.30;37.20;;;31.47;26.48;95418.69;5028758;28;20246;-81
2022/08/11 12:46:21;;;;;;;0.35;0.35;;;33.50;36.20;;;32.72;26.75;95400.31;5017066;28;20322;-81
2022/08/11 12:51:57;;;;;;;0.28;0.28;;;34.70;34.90;;;33.91;24.88;95396.25;5030285;28;20245;-79
2022/08/11 12:58:14;;;;;;;0.20;0.20;;;35.40;34.60;;;34.72;25.46;95396.88;5018935;28;20189;-81
2022/08/11 12:58:17;;;;;;;0.28;0.28;;;36.20;34.30;;;35.45;24.99;95386.50;5029015;28;20216;-81
2022/08/11 13:06:24;;;;;;;0.25;0.25;;;38.40;32.10;;;36.78;22.28;95377.88;5017837;28;20219;-78
2022/08/11 13:08:56;;;;;;;0.30;0.30;;;38.80;30.50;;;36.58;21.22;95383.22;5014745;28;20226;-81
2022/08/11 13:14:25;;;;;;;0.22;0.22;;;38.40;29.20;;;35.55;21.22;95386.03;5057173;28;20204;-78
2022/08/11 13:19:41;;;;;;;0.28;0.28;;;37.40;29.90;;;35.16;22.13;95368.41;5060484;28;20310;-80
2022/08/11 13:22:21;;;;;;;0.20;0.20;;;37.00;30.30;;;35.26;22.06;95360.53;5059120;28;20314;-78
2022/08/11 13:24:50;;;;;;;0.30;0.30;;;36.80;30.90;;;35.46;22.24;95357.28;5063460;28;20212;-80
2022/08/11 13:27:19;;;;;;;0.20;0.20;;;36.80;30.90;;;35.77;22.22;95366.78;5064190;28;20296;-78
2022/08/11 13:29:48;;;;;;;0.20;0.20;;;37.00;31.00;;;35.99;21.44;95354.63;5063303;28;20195;-80
2022/08/11 13:32:17;;;;;;;0.30;0.30;;;37.20;30.30;;;36.31;21.54;95369.19;5030962;28;20302;-78
2022/08/11 13:34:46;;;;;;;0.30;0.30;;;37.50;30.30;;;36.51;21.19;95353.78;5046041;28;20229;-80
2022/08/11 13:37:15;;;;;;;0.22;0.22;;;37.70;29.90;;;36.70;20.91;95355.84;5063731;28;20673;-79
2022/08/11 13:39:47;;;;;;;0.30;0.30;;;38.00;29.70;;;36.97;21.10;95352.63;5030926;28;20203;-78
2022/08/11 13:42:18;;;;;;;0.30;0.30;;;38.30;29.60;;;37.36;21.38;95346.59;5062305;28;20575;-78
2022/08/11 13:44:46;;;;;;;0.30;0.30;;;38.70;30.10;;;37.75;20.78;95358.41;5014852;28;20286;-78
2022/08/11 13:47:15;;;;;;;0.20;0.20;;;39.10;29.10;;;37.80;20.21;95358.13;5030719;28;20231;-81
2022/08/11 13:49:43;;;;;;;0.20;0.20;;;39.40;28.40;;;37.65;19.55;95358.97;5046820;28;20208;-78
2022/08/11 13:52:15;;;;;;;0.30;0.30;;;39.50;27.70;;;37.32;19.91;95352.72;5013896;28;20229;-79
2022/08/11 13:54:46;;;;;;;0.20;0.20;;;39.30;27.50;;;36.96;19.70;95360.06;5036100;28;20225;-77
2022/08/11 13:57:14;;;;;;;0.30;0.30;;;39.00;27.30;;;36.50;20.08;95352.19;5022571;28;20220;-78
2022/08/11 14:00:10;;;;;;;0.20;0.20;;;38.50;27.20;;;35.97;20.42;95352.22;5042539;28;20199;-78
2022/08/11 14:02:56;;;;;;;0.22;0.22;;;38.00;28.00;;;35.58;20.96;95349.91;5004992;28;20291;-77
2022/08/11 14:05:32;;;;;;;0.30;0.30;;;37.40;28.50;;;35.35;20.72;95355.00;5067506;28;20200;-77
2022/08/11 14:08:03;;;;;;;0.20;0.20;;;37.00;28.90;;;35.19;21.19;95348.63;5034486;28;20245;-80
2022/08/11 14:10:33;;;;;;;0.30;0.30;;;36.70;29.30;;;35.13;21.13;95347.25;5065580;28;20818;-79
2022/08/11 14:16:17;;;;;;;0.20;0.20;;;36.40;30.00;;;35.14;21.44;95344.19;5003815;28;20228;-77
2022/08/11 14:18:47;;;;;;;0.20;0.20;;;36.40;30.00;;;35.36;21.59;95340.19;5030986;28;20199;-81
2022/08/11 14:24:04;;;;;;;0.20;0.20;;;36.50;30.00;;;35.68;21.38;95331.44;5039397;28;20696;-79
2022/08/11 14:26:37;;;;;;;0.30;0.30;;;36.70;29.90;;;35.80;21.04;95327.91;5047438;28;20759;-80
2022/08/11 14:29:19;;;;;;;0.28;0.28;;;36.80;29.60;;;35.89;21.06;95321.22;4999915;28;20573;-80
2022/08/11 14:32:07;;;;;;;0.20;0.20;;;36.90;29.30;;;35.93;20.55;95326.00;5011239;28;20234;-78
2022/08/11 14:34:40;;;;;;;0.20;0.20;;;37.00;29.50;;;35.84;20.48;95326.06;5011510;28;20254;-78
2022/08/11 14:37:28;;;;;;;0.30;0.30;;;36.90;29.10;;;35.67;20.90;95330.66;5011389;28;20255;-77
2022/08/11 14:40:00;;;;;;;0.20;0.20;;;36.80;29.50;;;35.53;20.84;95319.31;5027834;28;20212;-77
2022/08/11 14:48:23;;;;;;;0.20;0.20;;;36.20;29.60;;;35.26;20.93;95332.50;5033407;28;20353;-78
2022/08/11 14:50:51;;;;;;;0.20;0.20;;;36.10;29.70;;;35.25;20.82;95325.44;5016743;28;20239;-77
2022/08/11 14:53:21;;;;;;;0.30;0.30;;;36.00;29.90;;;35.26;21.36;95321.59;5041290;28;20213;-79
2022/08/11 14:58:39;;;;;;;0.20;0.20;;;35.90;29.80;;;35.19;21.00;95326.81;5014425;28;20545;-78
2022/08/11 15:03:05;;;;;;;0.30;0.30;;;35.90;29.80;;;35.12;20.85;95327.38;5046802;28;20229;-78
2022/08/11 15:03:58;;;;;;;0.28;0.28;;;35.90;29.80;;;34.98;21.32;95329.63;5042204;28;20340;-77
2022/08/11 15:06:45;;;;;;;0.20;0.20;;;35.70;29.80;;;34.77;21.30;95325.81;5013087;28;20219;-78
2022/08/11 15:09:13;;;;;;;0.30;0.30;;;35.60;29.60;;;34.59;21.06;95325.22;4994684;28;20223;-80
2022/08/11 15:17:22;;;;;;;0.20;0.20;;;35.00;30.00;;;33.84;21.44;95324.09;4999823;28;20224;-80
2022/08/11 15:25:45;;;;;;;0.20;0.20;;;34.10;30.50;;;32.98;22.48;95326.94;5025043;28;20612;-79
2022/08/11 15:45:46;;;;;;;0.30;0.30;;;32.60;31.60;;;31.85;22.42;95319.69;5044491;28;20265;-79
2022/08/11 15:45:47;;;;;;;0.20;0.20;;;32.00;32.10;;;31.32;23.35;95316.09;5033106;28;20284;-79
2022/08/11 15:48:42;;;;;;;0.30;0.30;;;31.70;32.30;;;30.98;22.83;95308.31;5026706;28;20239;-79